createdAt,value
2016-03-14T00:00:00.292Z,57.32
2016-03-14T00:01:00.482Z,57.32
2016-03-14T00:02:00.267Z,57.23
2016-03-14T00:03:00.253Z,57.23
2016-03-14T00:04:00.240Z,57.42
2016-03-14T00:05:00.228Z,57.32
2016-03-14T00:06:00.324Z,57.23
2016-03-14T00:07:14.405Z,57.32
2016-03-14T00:08:00.205Z,57.32
2016-03-14T00:09:00.208Z,57.32
2016-03-14T00:10:00.194Z,57.32
2016-03-14T00:11:00.181Z,57.23
2016-03-14T00:12:00.434Z,57.23
2016-03-14T00:13:00.155Z,57.32
2016-03-14T00:14:00.142Z,56.75
2016-03-14T00:15:00.145Z,57.13
2016-03-14T00:16:00.132Z,57.13
2016-03-14T00:17:00.105Z,57.13
2016-03-14T00:18:00.107Z,56.94
2016-03-14T00:19:00.094Z,56.75
2016-03-14T00:20:00.096Z,56.75
2016-03-14T00:21:00.115Z,56.37
2016-03-14T00:22:00.070Z,56.46
2016-03-14T00:23:00.073Z,56.46
2016-03-14T00:24:00.044Z,56.46
2016-03-14T00:25:00.046Z,56.85
2016-03-14T00:26:00.034Z,56.94
2016-03-14T00:27:00.021Z,57.06
2016-03-14T00:28:00.009Z,56.94
2016-03-14T00:29:00.011Z,56.27
2016-03-14T00:29:59.998Z,56.12
2016-03-14T00:30:59.985Z,56.12
2016-03-14T00:31:59.972Z,56.12
2016-03-14T00:32:59.990Z,55.83
2016-03-14T00:33:59.946Z,55.74
2016-03-14T00:34:59.948Z,56.3
2016-03-14T00:35:59.937Z,56.09
2016-03-14T00:36:59.939Z,56.27
2016-03-14T00:37:59.911Z,56.56
2016-03-14T00:38:59.913Z,56.56
2016-03-14T00:39:59.916Z,56.94
2016-03-14T00:40:59.886Z,56.66
2016-03-14T00:41:59.874Z,56.46
2016-03-14T00:42:59.858Z,56.94
2016-03-14T00:43:59.861Z,56.85
2016-03-14T00:44:59.848Z,57.23
2016-03-14T00:45:59.835Z,56.72
2016-03-14T00:46:59.838Z,57.1
2016-03-14T00:47:59.825Z,57.29
2016-03-14T00:48:59.812Z,57.2
2016-03-14T00:49:59.799Z,57.48
2016-03-14T00:50:59.786Z,57.29
2016-03-14T00:51:59.773Z,57.2
2016-03-14T00:52:59.760Z,57.76
2016-03-14T00:53:59.763Z,58.14
2016-03-14T00:54:59.749Z,57.86
2016-03-14T00:55:59.737Z,57.86
2016-03-14T00:56:59.724Z,57.86
2016-03-14T00:57:59.712Z,58.05
2016-03-14T00:58:59.739Z,57.95
2016-03-14T00:59:59.827Z,57.86
2016-03-14T01:01:01.238Z,58.05
2016-03-14T01:02:00.781Z,58.24
2016-03-14T01:03:00.125Z,58.33
2016-03-14T01:03:59.659Z,58.24
2016-03-14T01:04:59.646Z,58.05
2016-03-14T01:05:59.695Z,58.14
2016-03-14T01:06:59.777Z,57.95
2016-03-14T01:07:59.622Z,58.33
2016-03-14T01:08:59.611Z,58.24
2016-03-14T01:10:00.913Z,58.52
2016-03-14T01:10:59.834Z,58.33
2016-03-14T01:12:00.839Z,58.43
2016-03-14T01:12:59.558Z,58.33
2016-03-14T01:13:59.561Z,58.33
2016-03-14T01:15:00.048Z,58.52
2016-03-14T01:16:00.428Z,59
2016-03-14T01:16:59.974Z,58.52
2016-03-14T01:17:59.509Z,59
2016-03-14T01:19:00.044Z,58.9
2016-03-14T01:20:00.108Z,59.19
2016-03-14T01:21:00.095Z,59.09
2016-03-14T01:21:59.473Z,59.28
2016-03-14T01:22:59.585Z,59.09
2016-03-14T01:23:59.447Z,58.81
2016-03-14T01:24:59.528Z,59.09
2016-03-14T01:26:59.423Z,59.09
2016-03-14T01:27:59.395Z,59.28
2016-03-14T01:28:59.414Z,58.81
2016-03-14T01:29:59.385Z,59.38
2016-03-14T01:30:59.717Z,59.09
2016-03-14T01:31:59.359Z,59.28
2016-03-14T01:32:59.378Z,59.09
2016-03-14T01:33:59.333Z,59.38
2016-03-14T01:34:59.336Z,59.56
2016-03-14T01:35:59.308Z,59.75
2016-03-14T01:36:59.966Z,59.63
2016-03-14T01:37:59.297Z,59.72
2016-03-14T01:38:59.300Z,59.66
2016-03-14T01:39:59.272Z,59.84
2016-03-14T01:40:59.274Z,59.94
2016-03-14T01:41:59.246Z,59.63
2016-03-14T01:42:59.249Z,60.1
2016-03-14T01:43:59.235Z,59.84
2016-03-14T01:44:59.238Z,60.19
2016-03-14T01:45:59.225Z,60.48
2016-03-14T01:46:59.212Z,60.38
2016-03-14T01:47:59.230Z,60.48
2016-03-14T01:48:59.186Z,60.41
2016-03-14T01:49:59.173Z,60.38
2016-03-14T01:50:59.160Z,60.29
2016-03-14T01:51:59.163Z,60.38
2016-03-14T01:52:59.134Z,60.38
2016-03-14T01:53:59.137Z,60.38
2016-03-14T01:54:59.123Z,60.38
2016-03-14T01:55:59.112Z,60.38
2016-03-14T01:56:59.098Z,60.38
2016-03-14T01:57:59.085Z,60.48
2016-03-14T01:58:59.088Z,60.19
2016-03-14T01:59:59.075Z,60.38
2016-03-14T02:00:59.062Z,60.48
2016-03-14T02:01:59.065Z,60.96
2016-03-14T02:02:59.052Z,60.96
2016-03-14T02:03:59.023Z,60.77
2016-03-14T02:04:59.026Z,60.77
2016-03-14T02:05:59.014Z,60.96
2016-03-14T02:06:58.984Z,61.05
2016-03-14T02:07:58.987Z,60.96
2016-03-14T02:08:58.959Z,60.96
2016-03-14T02:09:59.008Z,60.86
2016-03-14T02:10:58.964Z,60.86
2016-03-14T02:11:58.936Z,60.96
2016-03-14T02:12:58.938Z,61.05
2016-03-14T02:13:58.925Z,60.58
2016-03-14T02:14:58.928Z,60.58
2016-03-14T02:15:58.915Z,60.67
2016-03-14T02:16:58.886Z,60.67
2016-03-14T02:17:58.874Z,60.58
2016-03-14T02:18:59.313Z,60.77
2016-03-14T02:20:00.066Z,60.96
2016-03-14T02:21:00.210Z,61.05
2016-03-14T02:21:59.790Z,61.05
2016-03-14T02:22:58.824Z,61.05
2016-03-14T02:23:58.811Z,60.96
2016-03-14T02:24:58.815Z,61.05
2016-03-14T02:25:59.020Z,61.05
2016-03-14T02:26:58.788Z,60.86
2016-03-14T02:27:58.776Z,61.15
2016-03-14T02:28:59.590Z,61.05
2016-03-14T02:29:58.890Z,61.24
2016-03-14T02:30:58.737Z,61.33
2016-03-14T02:31:58.708Z,61.24
2016-03-14T02:32:58.742Z,61.15
2016-03-14T02:33:58.541Z,61.05
2016-03-14T02:34:59.748Z,61.15
2016-03-14T02:36:58.659Z,61.33
2016-03-14T02:37:58.662Z,61.33
2016-03-14T02:38:58.649Z,61.05
2016-03-14T02:39:58.652Z,61.52
2016-03-14T02:40:58.639Z,61.52
2016-03-14T02:41:58.641Z,61.71
2016-03-14T02:42:58.612Z,61.43
2016-03-14T02:43:58.600Z,61.52
2016-03-14T02:45:12.777Z,61.52
2016-03-14T02:45:58.574Z,61.55
2016-03-14T02:46:58.561Z,61.43
2016-03-14T02:47:58.563Z,61.27
2016-03-14T02:48:58.527Z,61.46
2016-03-14T02:49:58.518Z,61.55
2016-03-14T02:50:58.491Z,61.36
2016-03-14T02:51:58.466Z,61.55
2016-03-14T02:52:58.441Z,61.36
2016-03-14T02:53:58.435Z,61.55
2016-03-14T02:54:58.403Z,61.74
2016-03-14T02:55:58.400Z,61.74
2016-03-14T02:56:58.399Z,61.36
2016-03-14T02:57:58.366Z,61.36
2016-03-14T02:58:58.349Z,61.36
2016-03-14T02:59:58.334Z,61.36
2016-03-14T03:00:58.321Z,61.65
2016-03-14T03:01:58.322Z,61.46
2016-03-14T03:02:58.307Z,61.27
2016-03-14T03:03:58.293Z,61.83
2016-03-14T03:04:58.280Z,62.12
2016-03-14T03:05:58.265Z,62.21
2016-03-14T03:06:58.252Z,62.21
2016-03-14T03:07:58.239Z,62.12
2016-03-14T03:08:58.241Z,62.21
2016-03-14T03:09:58.228Z,62.12
2016-03-14T03:10:58.215Z,62.21
2016-03-14T03:11:58.202Z,61.93
2016-03-14T03:12:58.188Z,62.12
2016-03-14T03:13:58.208Z,61.93
2016-03-14T03:14:58.179Z,61.74
2016-03-14T03:15:58.182Z,61.74
2016-03-14T03:16:58.153Z,61.74
2016-03-14T03:17:58.157Z,61.93
2016-03-14T03:18:58.143Z,62.12
2016-03-14T03:19:58.130Z,62.12
2016-03-14T03:20:58.117Z,61.74
2016-03-14T03:21:58.104Z,61.83
2016-03-14T03:22:58.090Z,61.93
2016-03-14T03:23:58.093Z,61.74
2016-03-14T03:24:58.065Z,62.31
2016-03-14T03:25:58.053Z,62.4
2016-03-14T03:26:58.039Z,62.21
2016-03-14T03:27:58.026Z,62.4
2016-03-14T03:28:58.028Z,62.21
2016-03-14T03:29:58.016Z,62.21
2016-03-14T03:30:58.003Z,62.21
2016-03-14T03:31:57.990Z,62.21
2016-03-14T03:32:57.978Z,61.93
2016-03-14T03:33:57.980Z,62.12
2016-03-14T03:34:57.967Z,62.21
2016-03-14T03:35:57.970Z,62.02
2016-03-14T03:36:57.942Z,61.83
2016-03-14T03:37:57.944Z,62.21
2016-03-14T03:38:58.900Z,62.4
2016-03-14T03:39:59.136Z,62.37
2016-03-14T03:40:58.702Z,62.31
2016-03-14T03:41:57.955Z,62.5
2016-03-14T03:42:58.474Z,62.02
2016-03-14T03:43:57.882Z,62.5
2016-03-14T03:44:57.869Z,62.4
2016-03-14T03:45:57.856Z,62.02
2016-03-14T03:46:57.843Z,62.02
2016-03-14T03:47:58.267Z,62.4
2016-03-14T03:48:57.802Z,62.4
2016-03-14T03:49:58.773Z,62.31
2016-03-14T03:50:57.791Z,62.31
2016-03-14T03:51:57.793Z,62.31
2016-03-14T03:52:57.766Z,62.5
2016-03-14T03:55:57.992Z,62.31
2016-03-14T03:56:57.729Z,62.12
2016-03-14T03:57:57.731Z,62.5
2016-03-14T03:58:57.719Z,62.5
2016-03-14T03:59:57.722Z,62.5
2016-03-14T04:00:57.709Z,62.4
2016-03-14T04:01:57.680Z,62.4
2016-03-14T04:02:58.386Z,62.21
2016-03-14T04:04:57.641Z,62.12
2016-03-14T04:05:57.644Z,62.12
2016-03-14T04:06:57.647Z,62.02
2016-03-14T04:07:58.321Z,61.93
2016-03-14T04:08:57.621Z,61.93
2016-03-14T04:09:57.608Z,62.02
2016-03-14T04:10:57.595Z,62.02
2016-03-14T04:11:57.583Z,61.93
2016-03-14T04:12:57.569Z,62.02
2016-03-14T04:13:57.556Z,62.12
2016-03-14T04:14:57.543Z,62.12
2016-03-14T04:15:57.530Z,62.21
2016-03-14T04:16:57.533Z,62.12
2016-03-14T04:17:57.521Z,62.21
2016-03-14T04:18:57.524Z,62.12
2016-03-14T04:19:57.493Z,62.12
2016-03-14T04:20:57.496Z,62.02
2016-03-14T04:21:57.484Z,62.02
2016-03-14T04:22:57.471Z,62.02
2016-03-14T04:23:57.459Z,62.59
2016-03-14T04:24:57.446Z,62.59
2016-03-14T04:25:57.448Z,62.4
2016-03-14T04:26:57.420Z,62.59
2016-03-14T04:27:57.423Z,62.4
2016-03-14T04:28:57.394Z,62.31
2016-03-14T04:29:57.396Z,62.31
2016-03-14T04:30:57.384Z,62.21
2016-03-14T04:31:57.386Z,62.5
2016-03-14T04:32:57.373Z,62.4
2016-03-14T04:33:57.361Z,62.4
2016-03-14T04:34:57.348Z,62.4
2016-03-14T04:35:57.334Z,62.5
2016-03-14T04:36:57.337Z,62.5
2016-03-14T04:37:57.308Z,62.4
2016-03-14T04:38:57.311Z,62.5
2016-03-14T04:39:57.298Z,62.5
2016-03-14T04:40:57.270Z,62.31
2016-03-14T04:41:57.272Z,62.5
2016-03-14T04:42:57.260Z,62.12
2016-03-14T04:43:57.262Z,62.21
2016-03-14T04:44:57.234Z,62.12
2016-03-14T04:45:57.236Z,62.4
2016-03-14T04:46:57.208Z,61.93
2016-03-14T04:47:57.210Z,62.4
2016-03-14T04:48:57.197Z,62.21
2016-03-14T04:49:57.184Z,62.02
2016-03-14T04:50:57.187Z,62.02
2016-03-14T04:51:57.174Z,62.12
2016-03-14T04:52:57.162Z,62.21
2016-03-14T04:53:57.148Z,62.5
2016-03-14T04:54:57.151Z,62.69
2016-03-14T04:55:57.123Z,62.31
2016-03-14T04:56:57.906Z,62.31
2016-03-14T04:57:57.331Z,62.21
2016-03-14T04:58:57.756Z,62.4
2016-03-14T04:59:57.695Z,62.4
2016-03-14T05:00:57.058Z,62.31
2016-03-14T05:01:57.076Z,62.31
2016-03-14T05:02:57.064Z,62.5
2016-03-14T05:03:57.051Z,62.12
2016-03-14T05:04:57.178Z,62.21
2016-03-14T05:05:57.025Z,62.78
2016-03-14T05:06:57.011Z,62.59
2016-03-14T05:07:57.014Z,62.69
2016-03-14T05:08:57.861Z,62.59
2016-03-14T05:09:56.989Z,62.78
2016-03-14T05:10:56.975Z,62.97
2016-03-14T05:11:56.978Z,62.69
2016-03-14T05:12:57.527Z,63.07
2016-03-14T05:13:57.608Z,62.97
2016-03-14T05:14:57.080Z,62.88
2016-03-14T05:15:56.911Z,63.07
2016-03-14T05:16:56.913Z,63.42
2016-03-14T05:17:56.916Z,63.23
2016-03-14T05:18:56.902Z,63.23
2016-03-14T05:19:56.875Z,63.13
2016-03-14T05:20:56.862Z,62.75
2016-03-14T05:21:56.865Z,62.94
2016-03-14T05:22:57.757Z,63.51
2016-03-14T05:23:56.838Z,63.23
2016-03-14T05:24:57.231Z,63.51
2016-03-14T05:25:56.812Z,62.94
2016-03-14T05:26:56.815Z,63.51
2016-03-14T05:27:56.802Z,63.51
2016-03-14T05:28:56.773Z,63.13
2016-03-14T05:29:56.776Z,63.7
2016-03-14T05:30:56.747Z,63.89
2016-03-14T05:31:56.734Z,63.51
2016-03-14T05:32:56.722Z,63.51
2016-03-14T05:33:56.740Z,63.51
2016-03-14T05:34:56.711Z,63.7
2016-03-14T05:35:56.698Z,63.6
2016-03-14T05:36:56.701Z,63.79
2016-03-14T05:37:56.689Z,63.98
2016-03-14T05:38:56.676Z,63.98
2016-03-14T05:39:56.663Z,64.17
2016-03-14T05:40:56.650Z,64.64
2016-03-14T05:41:56.636Z,64.64
2016-03-14T05:42:56.624Z,64.45
2016-03-14T05:43:56.627Z,64.55
2016-03-14T05:44:56.614Z,64.45
2016-03-14T05:45:56.600Z,64.26
2016-03-14T05:46:56.588Z,64.45
2016-03-14T05:47:56.590Z,64.26
2016-03-14T05:48:56.577Z,64.36
2016-03-14T05:49:56.549Z,64.55
2016-03-14T05:50:56.551Z,64.45
2016-03-14T05:51:56.538Z,64.64
2016-03-14T05:52:56.526Z,64.45
2016-03-14T05:53:56.513Z,64.45
2016-03-14T05:54:56.515Z,64.36
2016-03-14T05:55:56.487Z,64.45
2016-03-14T05:56:56.490Z,64.55
2016-03-14T05:57:56.320Z,63.92
2016-03-14T05:58:56.464Z,64.26
2016-03-14T05:59:56.450Z,63.82
2016-03-14T06:00:56.453Z,63.64
2016-03-14T06:01:56.440Z,63.82
2016-03-14T06:02:56.443Z,64.11
2016-03-14T06:03:56.398Z,63.92
2016-03-14T06:04:56.401Z,64.01
2016-03-14T06:05:56.388Z,63.73
2016-03-14T06:06:56.365Z,63.64
2016-03-14T06:07:56.368Z,63.64
2016-03-14T06:08:56.370Z,63.73
2016-03-14T06:09:56.358Z,63.45
2016-03-14T06:10:56.344Z,63.92
2016-03-14T06:11:56.332Z,63.64
2016-03-14T06:12:56.318Z,63.26
2016-03-14T06:13:56.306Z,63.16
2016-03-14T06:14:56.293Z,62.97
2016-03-14T06:15:57.702Z,63.16
2016-03-14T06:16:56.266Z,63.2
2016-03-14T06:17:56.988Z,63.29
2016-03-14T06:18:56.896Z,63.2
2016-03-14T06:19:56.541Z,63.2
2016-03-14T06:20:56.231Z,63.2
2016-03-14T06:21:56.234Z,63.01
2016-03-14T06:22:56.204Z,62.62
2016-03-14T06:23:56.207Z,62.82
2016-03-14T06:24:56.195Z,62.91
2016-03-14T06:25:56.182Z,63.1
2016-03-14T06:26:56.012Z,62.82
2016-03-14T06:27:57.562Z,62.43
2016-03-14T06:28:56.142Z,62.82
2016-03-14T06:29:56.333Z,62.43
2016-03-14T06:30:56.570Z,62.82
2016-03-14T06:31:57.495Z,62.15
2016-03-14T06:33:56.969Z,62.53
2016-03-14T06:34:56.284Z,62.53
2016-03-14T06:35:56.083Z,62.43
2016-03-14T06:36:56.070Z,62.15
2016-03-14T06:37:56.058Z,62.05
2016-03-14T06:38:56.061Z,61.96
2016-03-14T06:39:56.032Z,61.9
2016-03-14T06:40:56.378Z,61.99
2016-03-14T06:41:56.021Z,61.43
2016-03-14T06:43:56.011Z,61.52
2016-03-14T06:44:55.983Z,61.43
2016-03-14T06:45:55.985Z,61.43
2016-03-14T06:46:56.082Z,61.43
2016-03-14T06:47:55.959Z,61.43
2016-03-14T06:48:55.962Z,61.33
2016-03-14T06:49:55.949Z,61.05
2016-03-14T06:50:55.952Z,61.05
2016-03-14T06:51:55.939Z,61.14
2016-03-14T06:52:55.942Z,61.24
2016-03-14T06:53:55.928Z,61.21
2016-03-14T06:54:55.915Z,61.49
2016-03-14T06:55:55.809Z,61.58
2016-03-14T06:56:55.874Z,61.87
2016-03-14T06:57:55.892Z,62.24
2016-03-14T06:58:55.879Z,62.15
2016-03-14T06:59:55.867Z,62.15
2016-03-14T07:00:55.870Z,61.96
2016-03-14T07:01:55.857Z,61.58
2016-03-14T07:02:55.859Z,61.4
2016-03-14T07:03:55.847Z,61.4
2016-03-14T07:04:55.849Z,61.33
2016-03-14T07:05:55.805Z,61.33
2016-03-14T07:06:55.823Z,60.95
2016-03-14T07:07:55.795Z,61.24
2016-03-14T07:08:55.814Z,60.5
2016-03-14T07:09:55.784Z,60.31
2016-03-14T07:10:55.834Z,59.46
2016-03-14T07:11:55.774Z,59.11
2016-03-14T07:12:55.761Z,59.3
2016-03-14T07:13:55.763Z,58.54
2016-03-14T07:14:55.752Z,58.54
2016-03-14T07:15:55.754Z,58.48
2016-03-14T07:16:55.757Z,58.39
2016-03-14T07:17:55.743Z,58.2
2016-03-14T07:18:55.747Z,57.72
2016-03-14T07:19:55.749Z,57.34
2016-03-14T07:20:55.736Z,57.37
2016-03-14T07:21:55.738Z,56.61
2016-03-14T07:22:55.726Z,56.51
2016-03-14T07:23:55.728Z,56.32
2016-03-14T07:24:55.732Z,56.32
2016-03-14T07:25:55.577Z,55.66
2016-03-14T07:26:55.737Z,55.59
2016-03-14T07:27:55.723Z,55.4
2016-03-14T07:28:55.726Z,55.02
2016-03-14T07:29:55.712Z,54.74
2016-03-14T07:30:55.715Z,55.02
2016-03-14T07:31:55.718Z,54.17
2016-03-14T07:32:55.706Z,53.69
2016-03-14T07:33:55.709Z,53.31
2016-03-14T07:34:57.242Z,53.63
2016-03-14T07:35:56.401Z,52.67
2016-03-14T07:36:55.701Z,52.39
2016-03-14T07:37:55.735Z,52.29
2016-03-14T07:38:55.706Z,52.2
2016-03-14T07:39:56.255Z,51.89
2016-03-14T07:40:55.742Z,51.79
2016-03-14T07:41:55.714Z,51.6
2016-03-14T07:42:55.717Z,51.72
2016-03-14T07:43:55.705Z,51.43
2016-03-14T07:44:56.925Z,51.15
2016-03-14T07:45:57.100Z,51.06
2016-03-14T07:46:56.493Z,51.06
2016-03-14T07:47:55.699Z,50.77
2016-03-14T07:48:55.718Z,50.96
2016-03-14T07:49:56.236Z,50.56
2016-03-14T07:51:56.054Z,50.46
2016-03-14T07:53:10.669Z,50.46
2016-03-14T07:53:56.325Z,50.27
2016-03-14T07:54:55.687Z,49.91
2016-03-14T07:55:55.705Z,49.44
2016-03-14T07:56:55.692Z,49.73
2016-03-14T07:57:55.695Z,49.35
2016-03-14T07:58:55.697Z,49.25
2016-03-14T07:59:56.623Z,49.15
2016-03-14T08:00:55.921Z,48.77
2016-03-14T08:01:55.674Z,48.8
2016-03-14T08:02:55.723Z,48.61
2016-03-14T08:03:55.976Z,48.71
2016-03-14T08:04:55.667Z,48.13
2016-03-14T08:05:55.685Z,47.94
2016-03-14T08:06:55.684Z,47.85
2016-03-14T08:07:55.687Z,47.75
2016-03-14T08:08:55.689Z,47.56
2016-03-14T08:09:55.678Z,47.47
2016-03-14T08:10:55.695Z,47.56
2016-03-14T08:11:55.683Z,47.37
2016-03-14T08:12:55.669Z,47.54
2016-03-14T08:13:55.672Z,47.34
2016-03-14T08:14:55.659Z,47.34
2016-03-14T08:15:55.693Z,47.52
2016-03-14T08:16:55.680Z,47.87
2016-03-14T08:17:55.683Z,47.77
2016-03-14T08:18:55.685Z,47.77
2016-03-14T08:19:55.673Z,47.97
2016-03-14T08:20:55.675Z,48.06
2016-03-14T08:21:55.646Z,47.77
2016-03-14T08:22:55.649Z,47.97
2016-03-14T08:23:55.652Z,47.87
2016-03-14T08:24:55.639Z,47.97
2016-03-14T08:25:55.642Z,48.06
2016-03-14T08:26:55.645Z,47.77
2016-03-14T08:27:55.632Z,47.68
2016-03-14T08:28:55.634Z,47.49
2016-03-14T08:29:55.621Z,47.33
2016-03-14T08:30:55.623Z,47.23
2016-03-14T08:31:55.611Z,47.2
2016-03-14T08:32:55.629Z,47.3
2016-03-14T08:33:55.617Z,47.49
2016-03-14T08:34:55.619Z,47.39
2016-03-14T08:35:55.622Z,47.39
2016-03-14T08:36:55.625Z,47.3
2016-03-14T08:37:55.596Z,47.49
2016-03-14T08:38:55.599Z,47.11
2016-03-14T08:39:55.586Z,47.11
2016-03-14T08:40:55.589Z,46.92
2016-03-14T08:41:55.592Z,46.83
2016-03-14T08:42:55.578Z,46.64
2016-03-14T08:43:55.566Z,46.73
2016-03-14T08:44:55.569Z,46.92
2016-03-14T08:45:55.571Z,47.3
2016-03-14T08:46:55.558Z,43.41
2016-03-14T08:47:55.560Z,43.41
2016-03-14T08:48:55.563Z,44.81
2016-03-14T08:49:55.550Z,44.9
2016-03-14T08:50:55.553Z,44.43
2016-03-14T08:51:55.540Z,44.07
2016-03-14T08:52:55.543Z,43.6
2016-03-14T08:53:56.327Z,41.89
2016-03-14T08:54:56.813Z,41.53
2016-03-14T08:55:55.520Z,40.48
2016-03-14T08:56:55.585Z,42.21
2016-03-14T08:57:55.603Z,53.65
2016-03-14T08:58:55.512Z,43.21
2016-03-14T08:59:55.952Z,39.72
2016-03-14T09:00:55.674Z,38.95
2016-03-14T09:01:55.504Z,38.54
2016-03-14T09:02:55.539Z,38.71
2016-03-14T09:03:55.478Z,38.41
2016-03-14T09:04:55.481Z,38.56
2016-03-14T09:05:55.484Z,37.21
2016-03-14T09:06:56.237Z,36.52
2016-03-14T09:07:55.473Z,36.1
2016-03-14T09:08:55.461Z,36.57
2016-03-14T09:10:55.466Z,37.57
2016-03-14T09:11:55.453Z,38.24
2016-03-14T09:12:55.455Z,38.43
2016-03-14T09:13:55.443Z,38.9
2016-03-14T09:14:56.149Z,38.53
2016-03-14T09:15:55.277Z,38.34
2016-03-14T09:16:55.435Z,38.62
2016-03-14T09:17:55.454Z,38.71
2016-03-14T09:18:56.284Z,38.53
2016-03-14T09:20:09.618Z,39.09
2016-03-14T09:20:56.368Z,39.57
2016-03-14T09:21:55.433Z,39.48
2016-03-14T09:22:55.420Z,39.38
2016-03-14T09:23:55.407Z,39.48
2016-03-14T09:24:55.409Z,39.38
2016-03-14T09:25:55.413Z,39.28
2016-03-14T09:26:55.415Z,39.09
2016-03-14T09:27:55.402Z,39.28
2016-03-14T09:28:55.404Z,39.19
2016-03-14T09:29:55.392Z,39.28
2016-03-14T09:30:55.395Z,39.19
2016-03-14T09:31:55.381Z,38.43
2016-03-14T09:32:55.385Z,38.43
2016-03-14T09:33:55.372Z,38.62
2016-03-14T09:34:55.390Z,38.53
2016-03-14T09:35:55.377Z,39.17
2016-03-14T09:36:55.395Z,38.6
2016-03-14T09:37:55.367Z,38.31
2016-03-14T09:38:55.370Z,38.22
2016-03-14T09:39:55.356Z,39.26
2016-03-14T09:40:55.359Z,39.17
2016-03-14T09:41:55.347Z,39.55
2016-03-14T09:42:55.350Z,39.53
2016-03-14T09:43:55.336Z,39.55
2016-03-14T09:44:55.339Z,39.55
2016-03-14T09:45:55.326Z,39.74
2016-03-14T09:46:55.344Z,39.45
2016-03-14T09:47:55.331Z,39.45
2016-03-14T09:48:55.318Z,39.36
2016-03-14T09:49:55.321Z,39.45
2016-03-14T09:50:55.324Z,39.55
2016-03-14T09:51:55.310Z,39.36
2016-03-14T09:52:55.314Z,38.89
2016-03-14T09:53:55.363Z,38.68
2016-03-14T09:54:55.304Z,39.62
2016-03-14T09:55:55.290Z,39.72
2016-03-14T09:56:55.277Z,39.81
2016-03-14T09:57:55.279Z,39.91
2016-03-14T09:58:55.298Z,39.93
2016-03-14T09:59:55.270Z,39.72
2016-03-14T10:00:55.273Z,39.74
2016-03-14T10:01:55.276Z,40.22
2016-03-14T10:02:55.262Z,39.93
2016-03-14T10:03:55.265Z,40.22
2016-03-14T10:04:55.252Z,40.31
2016-03-14T10:05:55.239Z,40.03
2016-03-14T10:06:55.231Z,40.22
2016-03-14T10:07:55.238Z,40.39
2016-03-14T10:08:55.226Z,40.29
2016-03-14T10:09:55.228Z,40.2
2016-03-14T10:10:55.216Z,40.58
2016-03-14T10:11:55.202Z,40.58
2016-03-14T10:12:55.596Z,40.67
2016-03-14T10:13:55.208Z,40.39
2016-03-14T10:14:55.992Z,40.67
2016-03-14T10:15:56.447Z,40.86
2016-03-14T10:16:55.185Z,40.95
2016-03-14T10:17:55.843Z,40.86
2016-03-14T10:18:55.174Z,40.95
2016-03-14T10:19:55.177Z,40.86
2016-03-14T10:20:55.164Z,40.67
2016-03-14T10:21:55.152Z,40.95
2016-03-14T10:22:56.107Z,40.95
2016-03-14T10:23:56.266Z,41.14
2016-03-14T10:24:55.815Z,41.34
2016-03-14T10:25:55.146Z,41.43
2016-03-14T10:26:55.712Z,41.14
2016-03-14T10:27:55.511Z,40.95
2016-03-14T10:28:55.327Z,41.13
2016-03-14T10:29:55.673Z,41.31
2016-03-14T10:31:55.709Z,41.98
2016-03-14T10:32:55.103Z,42.17
2016-03-14T10:33:55.090Z,42.08
2016-03-14T10:34:55.109Z,42.55
2016-03-14T10:35:55.080Z,42.55
2016-03-14T10:36:55.082Z,42.17
2016-03-14T10:38:09.272Z,42.08
2016-03-14T10:39:55.153Z,42.08
2016-03-14T10:41:55.064Z,42.17
2016-03-14T10:42:55.036Z,42.36
2016-03-14T10:43:55.039Z,42.46
2016-03-14T10:44:55.025Z,42.55
2016-03-14T10:45:55.028Z,42.29
2016-03-14T10:46:55.016Z,42.47
2016-03-14T10:47:55.002Z,42.1
2016-03-14T10:48:55.005Z,42.19
2016-03-14T10:49:55.008Z,41.72
2016-03-14T10:50:54.995Z,41.91
2016-03-14T10:51:54.998Z,41.14
2016-03-14T10:52:54.968Z,41.34
2016-03-14T10:53:54.987Z,41.43
2016-03-14T10:54:54.959Z,41.24
2016-03-14T10:55:54.961Z,41.24
2016-03-14T10:56:54.949Z,40.95
2016-03-14T10:57:54.951Z,41.14
2016-03-14T10:58:54.938Z,40.95
2016-03-14T10:59:54.940Z,41.14
2016-03-14T11:00:54.944Z,41.24
2016-03-14T11:01:54.932Z,41.14
2016-03-14T11:02:54.918Z,41.24
2016-03-14T11:03:54.921Z,40.86
2016-03-14T11:04:54.909Z,40.95
2016-03-14T11:05:54.912Z,40.95
2016-03-14T11:06:54.898Z,41.05
2016-03-14T11:07:54.901Z,40.48
2016-03-14T11:08:54.873Z,40.77
2016-03-14T11:09:54.875Z,40.77
2016-03-14T11:10:54.862Z,40.48
2016-03-14T11:11:54.864Z,40.39
2016-03-14T11:12:54.851Z,40.67
2016-03-14T11:13:54.870Z,40.48
2016-03-14T11:14:54.857Z,40.77
2016-03-14T11:15:54.845Z,41.03
2016-03-14T11:16:54.831Z,41.13
2016-03-14T11:17:54.834Z,41.31
2016-03-14T11:18:54.821Z,41.22
2016-03-14T11:19:54.824Z,41.41
2016-03-14T11:20:54.811Z,41.69
2016-03-14T11:21:54.801Z,41.5
2016-03-14T11:22:54.803Z,41.62
2016-03-14T11:23:54.790Z,41.34
2016-03-14T11:24:54.808Z,41.24
2016-03-14T11:25:54.780Z,41.43
2016-03-14T11:26:54.783Z,41.53
2016-03-14T11:27:54.785Z,41.14
2016-03-14T11:28:54.757Z,41.43
2016-03-14T11:29:54.760Z,41.53
2016-03-14T11:30:54.762Z,41.34
2016-03-14T11:32:55.596Z,40.67
2016-03-14T11:33:54.927Z,40.77
2016-03-14T11:34:54.883Z,40.67
2016-03-14T11:35:54.729Z,40.67
2016-03-14T11:36:54.763Z,40.58
2016-03-14T11:37:54.906Z,40.77
2016-03-14T11:38:54.721Z,40.39
2016-03-14T11:39:54.693Z,40.48
2016-03-14T11:40:54.695Z,40.58
2016-03-14T11:42:54.685Z,40.67
2016-03-14T11:43:54.687Z,40.58
2016-03-14T11:44:55.675Z,40.58
2016-03-14T11:45:54.678Z,40.67
2016-03-14T11:46:54.665Z,40.77
2016-03-14T11:48:09.198Z,40.58
2016-03-14T11:48:55.248Z,40.95
2016-03-14T11:49:55.564Z,40.58
2016-03-14T11:50:55.004Z,40.58
2016-03-14T11:51:54.631Z,40.58
2016-03-14T11:52:54.634Z,40.67
2016-03-14T11:53:54.621Z,40.58
2016-03-14T11:54:54.617Z,40.48
2016-03-14T11:55:54.595Z,40.1
2016-03-14T11:56:54.634Z,40.39
2016-03-14T11:57:54.564Z,40.29
2016-03-14T11:58:54.532Z,40.29
2016-03-14T11:59:54.967Z,40.39
2016-03-14T12:00:55.216Z,40.1
2016-03-14T12:01:54.871Z,40.29
2016-03-14T12:02:54.589Z,40.2
2016-03-14T12:03:54.728Z,40.48
2016-03-14T12:04:54.479Z,40.31
2016-03-14T12:05:54.480Z,40.22
2016-03-14T12:06:54.467Z,40.41
2016-03-14T12:07:54.469Z,40.22
2016-03-14T12:08:54.454Z,40.22
2016-03-14T12:09:54.456Z,40.41
2016-03-14T12:10:54.443Z,40.22
2016-03-14T12:11:54.445Z,40.31
2016-03-14T12:12:54.417Z,40.12
2016-03-14T12:13:54.418Z,40.31
2016-03-14T12:14:54.405Z,40.22
2016-03-14T12:15:54.407Z,40.12
2016-03-14T12:16:54.410Z,40.41
2016-03-14T12:17:54.397Z,40.22
2016-03-14T12:18:54.383Z,40.22
2016-03-14T12:19:54.386Z,40.22
2016-03-14T12:20:54.388Z,40.22
2016-03-14T12:21:54.376Z,40.22
2016-03-14T12:22:54.362Z,40.5
2016-03-14T12:23:54.366Z,40.5
2016-03-14T12:24:54.352Z,40.41
2016-03-14T12:25:54.355Z,40.31
2016-03-14T12:26:54.217Z,39.74
2016-03-14T12:27:54.345Z,39.74
2016-03-14T12:28:54.331Z,40.03
2016-03-14T12:29:54.319Z,40.03
2016-03-14T12:30:54.322Z,40.41
2016-03-14T12:31:54.309Z,39.65
2016-03-14T12:32:54.312Z,40.12
2016-03-14T12:33:54.314Z,39.45
2016-03-14T12:34:54.301Z,38.7
2016-03-14T12:35:54.303Z,38.89
2016-03-14T12:36:54.292Z,38.79
2016-03-14T12:37:54.278Z,38.6
2016-03-14T12:38:54.281Z,38.41
2016-03-14T12:39:54.253Z,38.7
2016-03-14T12:40:54.256Z,38.41
2016-03-14T12:41:54.273Z,38.51
2016-03-14T12:42:54.261Z,38.7
2016-03-14T12:43:54.247Z,38.41
2016-03-14T12:44:54.250Z,38.79
2016-03-14T12:45:54.236Z,38.6
2016-03-14T12:46:54.224Z,38.31
2016-03-14T12:47:54.227Z,38.31
2016-03-14T12:48:54.229Z,38.51
2016-03-14T12:49:54.232Z,38.22
2016-03-14T12:50:54.204Z,38.22
2016-03-14T12:51:54.207Z,38.12
2016-03-14T12:52:55.115Z,38.22
2016-03-14T12:53:54.197Z,38.31
2016-03-14T12:54:54.215Z,38.22
2016-03-14T12:55:54.888Z,37.84
2016-03-14T12:56:54.096Z,38.03
2016-03-14T12:57:54.176Z,37.93
2016-03-14T12:58:54.179Z,37.84
2016-03-14T12:59:54.165Z,38.05
2016-03-14T13:00:54.637Z,37.95
2016-03-14T13:01:55.201Z,37.76
2016-03-14T13:02:54.986Z,37.76
2016-03-14T13:03:54.129Z,37.86
2016-03-14T13:04:54.850Z,37.67
2016-03-14T13:05:54.119Z,37.57
2016-03-14T13:06:55.340Z,37.49
2016-03-14T13:07:54.108Z,37.12
2016-03-14T13:08:54.112Z,36.93